createdAt,value
2018-08-13T00:01:00.443Z,1.73
2018-08-13T00:03:28.606Z,1.60
2018-08-13T00:05:56.780Z,1.57
2018-08-13T00:08:24.931Z,1.90
2018-08-13T00:10:53.115Z,1.80
2018-08-13T00:13:21.276Z,1.67
2018-08-13T00:15:49.513Z,1.60
2018-08-13T00:18:17.689Z,1.63
2018-08-13T00:20:45.858Z,1.97
2018-08-13T00:23:14.030Z,1.80
2018-08-13T00:25:42.190Z,1.90
2018-08-13T00:28:10.729Z,1.80
2018-08-13T00:30:39.258Z,2.00
2018-08-13T00:33:08.363Z,1.80
2018-08-13T00:35:36.630Z,1.90
2018-08-13T00:38:04.803Z,1.90
2018-08-13T00:40:32.968Z,1.97
2018-08-13T00:43:01.169Z,1.97
2018-08-13T00:45:29.355Z,1.73
2018-08-13T00:47:57.518Z,1.70
2018-08-13T00:50:25.712Z,1.80
2018-08-13T00:52:53.910Z,1.80
2018-08-13T00:55:22.082Z,1.83
2018-08-13T00:57:50.277Z,2.20
2018-08-13T01:00:19.614Z,2.10
2018-08-13T01:02:48.190Z,1.80
2018-08-13T01:05:17.362Z,1.63
2018-08-13T01:07:45.522Z,2.00
2018-08-13T01:10:16.102Z,1.93
2018-08-13T01:12:44.413Z,2.10
2018-08-13T01:15:14.447Z,2.20
2018-08-13T01:17:43.913Z,2.00
2018-08-13T01:20:14.348Z,2.00
2018-08-13T01:22:42.569Z,2.00
2018-08-13T01:25:12.716Z,2.00
2018-08-13T01:27:41.350Z,1.80
2018-08-13T01:30:10.862Z,1.77
2018-08-13T01:32:39.029Z,2.00
2018-08-13T01:35:07.516Z,2.00
2018-08-13T01:37:35.661Z,1.70
2018-08-13T01:40:05.401Z,2.27
2018-08-13T01:42:33.561Z,2.07
2018-08-13T01:45:01.715Z,1.70
2018-08-13T01:47:29.901Z,2.10
2018-08-13T01:49:58.059Z,2.27
2018-08-13T01:52:26.205Z,1.80
2018-08-13T01:54:54.350Z,2.33
2018-08-13T01:57:22.570Z,1.87
2018-08-13T01:59:50.754Z,1.90
2018-08-13T02:02:18.905Z,1.97
2018-08-13T02:04:47.054Z,1.83
2018-08-13T02:07:15.193Z,2.10
2018-08-13T02:09:43.343Z,2.03
2018-08-13T02:12:11.839Z,2.03
2018-08-13T02:14:39.981Z,2.03
2018-08-13T02:17:08.124Z,2.20
2018-08-13T02:19:36.265Z,2.00
2018-08-13T02:22:04.555Z,1.90
2018-08-13T02:24:32.700Z,2.37
2018-08-13T02:27:00.866Z,2.17
2018-08-13T02:29:28.992Z,2.40
2018-08-13T02:31:57.300Z,2.23
2018-08-13T02:34:25.511Z,2.30
2018-08-13T02:36:53.654Z,2.03
2018-08-13T02:39:22.059Z,2.00
2018-08-13T02:41:50.211Z,2.27
2018-08-13T02:44:18.364Z,2.47
2018-08-13T02:46:46.559Z,2.33
2018-08-13T02:49:14.714Z,2.63
2018-08-13T02:51:42.854Z,2.37
2018-08-13T02:54:11.005Z,2.20
2018-08-13T02:56:39.132Z,2.60
2018-08-13T02:59:07.269Z,2.40
2018-08-13T03:01:35.422Z,2.27
2018-08-13T03:04:03.598Z,2.20
2018-08-13T03:06:31.720Z,2.33
2018-08-13T03:08:59.866Z,2.23
2018-08-13T03:11:28.034Z,2.27
2018-08-13T03:13:56.211Z,2.30
2018-08-13T03:16:24.702Z,2.47
2018-08-13T03:18:53.010Z,2.00
2018-08-13T03:21:21.186Z,2.40
2018-08-13T03:23:49.316Z,2.67
2018-08-13T03:26:17.486Z,2.20
2018-08-13T03:28:45.646Z,2.53
2018-08-13T03:31:13.764Z,2.40
2018-08-13T03:33:41.930Z,2.00
2018-08-13T03:36:10.074Z,2.10
2018-08-13T03:38:38.234Z,2.40
2018-08-13T03:41:06.370Z,2.27
2018-08-13T03:43:34.522Z,2.10
2018-08-13T03:46:02.673Z,2.70
2018-08-13T03:48:30.849Z,2.40
2018-08-13T03:50:59.001Z,2.40
2018-08-13T03:53:27.202Z,2.30
2018-08-13T03:55:55.365Z,2.70
2018-08-13T03:58:23.574Z,2.77
2018-08-13T04:00:51.738Z,2.17
2018-08-13T04:03:19.906Z,2.50
2018-08-13T04:05:48.126Z,2.47
2018-08-13T04:08:16.257Z,2.47
2018-08-13T04:10:44.421Z,2.70
2018-08-13T04:13:12.573Z,2.13
2018-08-13T04:15:40.714Z,2.60
2018-08-13T04:18:09.333Z,2.60
2018-08-13T04:20:37.498Z,2.70
2018-08-13T04:23:05.674Z,2.10
2018-08-13T04:25:33.810Z,2.50
2018-08-13T04:28:01.959Z,2.77
2018-08-13T04:30:30.173Z,2.83
2018-08-13T04:32:58.328Z,2.60
2018-08-13T04:35:26.499Z,2.73
2018-08-13T04:37:54.655Z,2.60
2018-08-13T04:40:22.837Z,2.77
2018-08-13T04:42:51.016Z,2.47
2018-08-13T04:45:19.183Z,2.60
2018-08-13T04:47:50.853Z,2.50
2018-08-13T04:50:19.182Z,2.67
2018-08-13T04:52:47.612Z,2.67
2018-08-13T04:55:15.802Z,2.50
2018-08-13T04:57:44.114Z,2.83
2018-08-13T05:00:12.417Z,2.77
2018-08-13T05:02:40.566Z,2.73
2018-08-13T05:05:10.120Z,2.60
2018-08-13T05:07:38.496Z,2.87
2018-08-13T05:10:08.142Z,2.67
2018-08-13T05:12:36.294Z,2.87
2018-08-13T05:15:05.574Z,3.57
2018-08-13T05:17:33.744Z,2.67
2018-08-13T05:20:01.922Z,2.90
2018-08-13T05:22:30.051Z,3.20
2018-08-13T05:24:58.194Z,2.93
2018-08-13T05:27:26.384Z,2.93
2018-08-13T05:29:54.533Z,3.10
2018-08-13T05:32:22.753Z,3.60
2018-08-13T05:34:50.913Z,3.30
2018-08-13T05:37:19.062Z,3.10
2018-08-13T05:39:47.226Z,3.13
2018-08-13T05:42:15.381Z,3.30
2018-08-13T05:44:43.533Z,2.73
2018-08-13T05:47:11.747Z,2.97
2018-08-13T05:49:39.881Z,2.80
2018-08-13T05:52:08.058Z,2.90
2018-08-13T05:54:36.231Z,2.67
2018-08-13T05:57:04.438Z,2.60
2018-08-13T05:59:32.581Z,2.53
2018-08-13T06:02:00.750Z,2.40
2018-08-13T06:04:28.904Z,2.70
2018-08-13T06:06:57.062Z,2.47
2018-08-13T06:09:25.205Z,2.60
2018-08-13T06:11:53.364Z,2.70
2018-08-13T06:14:21.500Z,2.53
2018-08-13T06:16:49.701Z,2.70
2018-08-13T06:19:17.861Z,2.60
2018-08-13T06:21:46.015Z,2.60
2018-08-13T06:24:14.181Z,2.50
2018-08-13T06:26:42.349Z,2.53
2018-08-13T06:29:10.494Z,2.73
2018-08-13T06:31:38.670Z,2.77
2018-08-13T06:34:06.909Z,2.70
2018-08-13T06:36:35.083Z,2.60
2018-08-13T06:39:04.028Z,2.90
2018-08-13T06:41:32.201Z,2.60
2018-08-13T06:44:00.357Z,2.63
2018-08-13T06:46:28.549Z,2.50
2018-08-13T06:48:56.718Z,2.90
2018-08-13T06:51:24.863Z,3.10
2018-08-13T06:53:53.029Z,3.37
2018-08-13T06:56:21.161Z,3.10
2018-08-13T06:58:49.320Z,3.00
2018-08-13T07:01:17.461Z,3.30
2018-08-13T07:03:45.667Z,3.10
2018-08-13T07:06:13.874Z,3.43
2018-08-13T07:08:42.021Z,3.07
2018-08-13T07:11:10.178Z,3.00
2018-08-13T07:13:38.379Z,2.87
2018-08-13T07:16:06.592Z,3.07
2018-08-13T07:18:34.733Z,3.03
2018-08-13T07:21:02.873Z,3.47
2018-08-13T07:23:31.067Z,3.20
2018-08-13T07:25:59.209Z,3.10
2018-08-13T07:28:27.386Z,3.10
2018-08-13T07:30:55.545Z,2.97
2018-08-13T07:33:23.762Z,3.33
2018-08-13T07:35:51.886Z,3.70
2018-08-13T07:38:20.064Z,3.70
2018-08-13T07:40:48.306Z,4.13
2018-08-13T07:43:16.490Z,3.47
2018-08-13T07:45:44.799Z,3.90
2018-08-13T07:48:12.904Z,3.63
2018-08-13T07:50:41.166Z,3.37
2018-08-13T07:53:09.438Z,3.33
2018-08-13T07:55:37.590Z,3.43
2018-08-13T07:58:05.737Z,3.33
2018-08-13T08:00:33.898Z,3.80
2018-08-13T08:03:02.062Z,3.73
2018-08-13T08:05:30.211Z,3.30
2018-08-13T08:07:58.362Z,4.07
2018-08-13T08:10:26.534Z,3.90
2018-08-13T08:12:54.707Z,4.10
2018-08-13T08:15:22.921Z,3.73
2018-08-13T08:17:51.065Z,3.57
2018-08-13T08:20:19.210Z,3.53
2018-08-13T08:22:47.377Z,3.50
2018-08-13T08:25:17.824Z,3.83
2018-08-13T08:27:46.013Z,3.40
2018-08-13T08:30:14.564Z,3.80
2018-08-13T08:32:42.941Z,3.27
2018-08-13T08:35:13.469Z,3.83
2018-08-13T08:37:41.738Z,3.50
2018-08-13T08:40:12.889Z,3.87
2018-08-13T08:42:41.126Z,4.03
2018-08-13T08:45:13.745Z,4.23
2018-08-13T08:47:42.383Z,4.43
2018-08-13T08:50:10.658Z,3.97
2018-08-13T08:52:38.842Z,3.80
2018-08-13T08:55:07.318Z,3.40
2018-08-13T08:57:35.574Z,3.17
2018-08-13T09:00:03.968Z,3.13
2018-08-13T09:02:32.126Z,3.23
2018-08-13T09:05:00.363Z,3.10
2018-08-13T09:07:28.514Z,3.10
2018-08-13T09:09:56.696Z,2.90
2018-08-13T09:12:25.206Z,2.63
2018-08-13T09:14:53.411Z,2.77
2018-08-13T09:17:21.662Z,2.67
2018-08-13T09:20:01.078Z,3.10
2018-08-13T09:23:44.549Z,3.10
2018-08-13T09:26:24.210Z,3.40
2018-08-13T09:29:03.755Z,3.00
2018-08-13T09:31:56.666Z,3.33
2018-08-13T09:34:32.766Z,3.33
2018-08-13T09:37:00.983Z,3.10
2018-08-13T09:39:29.129Z,3.90
2018-08-13T09:41:57.291Z,3.60
2018-08-13T09:44:25.472Z,3.40
2018-08-13T09:46:53.614Z,3.93
2018-08-13T09:49:21.758Z,4.37
2018-08-13T09:51:49.922Z,4.80
2018-08-13T09:54:18.080Z,4.67
2018-08-13T09:56:46.238Z,4.40
2018-08-13T09:59:14.380Z,4.27
2018-08-13T10:01:42.590Z,4.60
2018-08-13T10:04:10.726Z,4.67
2018-08-13T10:06:38.878Z,4.73
2018-08-13T10:09:07.705Z,4.93
2018-08-13T10:11:35.878Z,5.03
2018-08-13T10:14:04.090Z,4.70
2018-08-13T10:16:32.249Z,4.70
2018-08-13T10:19:00.421Z,4.30
2018-08-13T10:21:28.557Z,4.03
2018-08-13T10:23:56.726Z,4.40
2018-08-13T10:26:24.886Z,4.63
2018-08-13T10:28:53.025Z,4.67
2018-08-13T10:31:21.213Z,4.40
2018-08-13T10:33:49.417Z,4.93
2018-08-13T10:36:17.584Z,4.23
2018-08-13T10:38:45.745Z,4.23
2018-08-13T10:41:13.917Z,4.10
2018-08-13T10:43:42.143Z,3.87
2018-08-13T10:46:10.300Z,3.17
2018-08-13T10:48:38.439Z,3.90
2018-08-13T10:51:06.618Z,3.80
2018-08-13T10:53:34.779Z,3.63
2018-08-13T10:56:03.040Z,2.83
2018-08-13T10:58:31.242Z,3.10
2018-08-13T11:00:59.409Z,3.20
2018-08-13T11:03:27.572Z,2.67
2018-08-13T11:05:55.820Z,2.80
2018-08-13T11:08:23.964Z,2.70
2018-08-13T11:10:52.157Z,2.80
2018-08-13T11:13:20.321Z,2.50
2018-08-13T11:15:48.843Z,2.50
2018-08-13T11:18:17.032Z,2.53
2018-08-13T11:20:45.236Z,3.07
2018-08-13T11:23:13.431Z,2.53
2018-08-13T11:25:41.620Z,2.20
2018-08-13T11:28:09.777Z,2.53
2018-08-13T11:30:37.929Z,2.60
2018-08-13T11:33:06.142Z,2.70
2018-08-13T11:35:34.303Z,2.60
2018-08-13T11:38:02.454Z,2.80
2018-08-13T11:40:30.645Z,2.80
2018-08-13T11:42:58.760Z,2.80
2018-08-13T11:45:26.912Z,2.90
2018-08-13T11:47:55.162Z,2.90
2018-08-13T11:50:23.339Z,2.97
2018-08-13T11:52:51.909Z,3.00
2018-08-13T11:55:20.500Z,3.27
2018-08-13T11:57:49.688Z,2.90
2018-08-13T12:00:17.885Z,3.10
2018-08-13T12:02:46.184Z,2.73
2018-08-13T12:05:15.329Z,2.90
2018-08-13T12:07:44.007Z,2.90
2018-08-13T12:10:12.805Z,2.83
2018-08-13T12:12:41.721Z,3.10
2018-08-13T12:15:10.971Z,2.23
2018-08-13T12:17:39.389Z,2.63
2018-08-13T12:20:15.500Z,2.60
2018-08-13T12:22:44.233Z,2.53
2018-08-13T12:25:30.942Z,2.47
2018-08-13T12:27:59.129Z,2.50
2018-08-13T12:30:27.306Z,2.43
2018-08-13T12:32:55.872Z,2.67
2018-08-13T12:35:24.030Z,2.60
2018-08-13T12:37:52.415Z,2.60
2018-08-13T12:40:20.707Z,2.73
2018-08-13T12:42:48.874Z,2.53
2018-08-13T12:45:17.894Z,3.43
2018-08-13T12:47:46.069Z,2.60
2018-08-13T12:50:15.548Z,2.80
2018-08-13T12:52:44.845Z,3.03
2018-08-13T12:55:13.349Z,2.57
2018-08-13T12:57:41.532Z,2.90
2018-08-13T13:00:12.577Z,2.80
2018-08-13T13:02:41.153Z,2.50
2018-08-13T13:05:10.737Z,2.60
2018-08-13T13:07:38.923Z,2.73
2018-08-13T13:10:09.524Z,2.93
2018-08-13T13:12:37.770Z,2.80
2018-08-13T13:15:07.677Z,2.50
2018-08-13T13:17:36.314Z,3.07
2018-08-13T13:20:05.916Z,2.97
2018-08-13T13:22:34.125Z,2.50
2018-08-13T13:25:02.379Z,2.90
2018-08-13T13:27:30.605Z,2.83
2018-08-13T13:29:58.765Z,2.87
2018-08-13T13:32:26.909Z,2.90
2018-08-13T13:34:55.067Z,3.07
2018-08-13T13:37:23.225Z,2.87
2018-08-13T13:39:51.369Z,2.77
2018-08-13T13:42:19.526Z,2.90
2018-08-13T13:44:47.677Z,2.70
2018-08-13T13:47:15.820Z,2.50
2018-08-13T13:49:43.966Z,2.53
2018-08-13T13:52:12.113Z,2.30
2018-08-13T13:54:40.278Z,2.83
2018-08-13T13:57:08.566Z,2.40
2018-08-13T13:59:36.705Z,2.80
2018-08-13T14:02:05.145Z,2.63
2018-08-13T14:04:33.303Z,2.50
2018-08-13T14:07:01.493Z,2.90
2018-08-13T14:09:29.705Z,2.97
2018-08-13T14:11:57.874Z,3.00
2018-08-13T14:14:26.010Z,2.67
2018-08-13T14:16:54.157Z,2.70
2018-08-13T14:19:22.316Z,2.50
2018-08-13T14:21:50.470Z,2.40
2018-08-13T14:24:18.601Z,2.33
2018-08-13T14:26:46.762Z,2.17
2018-08-13T14:29:14.917Z,2.07
2018-08-13T14:31:43.152Z,2.47
2018-08-13T14:34:11.303Z,2.03
2018-08-13T14:36:39.458Z,2.00
2018-08-13T14:39:09.829Z,2.07
2018-08-13T14:41:38.061Z,1.97
2018-08-13T14:44:06.348Z,2.53
2018-08-13T14:46:34.795Z,2.43
2018-08-13T14:49:02.950Z,2.00
2018-08-13T14:51:31.253Z,2.37
2018-08-13T14:53:59.381Z,2.03
2018-08-13T14:56:27.541Z,1.87
2018-08-13T14:58:55.700Z,1.70
2018-08-13T15:01:23.883Z,2.00
2018-08-13T15:03:52.037Z,1.80
2018-08-13T15:06:20.206Z,1.83
2018-08-13T15:08:48.625Z,2.40
2018-08-13T15:11:16.757Z,1.77
2018-08-13T15:13:44.922Z,2.13
2018-08-13T15:16:13.115Z,2.10
2018-08-13T15:18:41.264Z,1.83
2018-08-13T15:21:09.418Z,1.93
2018-08-13T15:23:37.581Z,1.70
2018-08-13T15:26:05.944Z,1.47
2018-08-13T15:28:34.085Z,1.70
2018-08-13T15:31:02.264Z,1.87
2018-08-13T15:33:30.555Z,2.00
2018-08-13T15:35:58.604Z,1.70
2018-08-13T15:38:26.805Z,1.50
2018-08-13T15:40:54.962Z,1.70
2018-08-13T15:43:23.253Z,1.77
2018-08-13T15:45:51.470Z,1.63
2018-08-13T15:48:19.619Z,1.70
2018-08-13T15:50:47.778Z,1.80
2018-08-13T15:53:15.938Z,1.80
2018-08-13T15:55:44.237Z,1.90
2018-08-13T15:58:12.275Z,2.00
2018-08-13T16:00:40.450Z,2.30
2018-08-13T16:03:08.618Z,2.70
2018-08-13T16:05:36.798Z,2.40
2018-08-13T16:08:05.016Z,2.47
2018-08-13T16:10:33.149Z,2.73
2018-08-13T16:13:01.334Z,2.40
2018-08-13T16:15:29.510Z,2.40
2018-08-13T16:17:57.683Z,3.30
2018-08-13T16:20:25.837Z,2.90
2018-08-13T16:22:54.022Z,2.67
2018-08-13T16:25:22.181Z,2.50
2018-08-13T16:27:50.368Z,3.07
2018-08-13T16:30:22.117Z,3.10
2018-08-13T16:32:50.437Z,3.00
2018-08-13T16:35:19.323Z,3.13
2018-08-13T16:37:47.685Z,2.80
2018-08-13T16:40:16.686Z,2.93
2018-08-13T16:42:44.861Z,2.67
2018-08-13T16:45:14.062Z,2.13
2018-08-13T16:47:42.256Z,2.30
2018-08-13T16:50:14.357Z,2.10
2018-08-13T16:52:42.535Z,2.07
2018-08-13T16:55:11.365Z,1.97
2018-08-13T16:57:39.769Z,1.90
2018-08-13T17:00:09.654Z,1.80
2018-08-13T17:02:38.196Z,1.73
2018-08-13T17:05:08.223Z,2.17
2018-08-13T17:07:36.464Z,1.90
2018-08-13T17:10:06.065Z,1.60
2018-08-13T17:12:34.235Z,1.53
2018-08-13T17:15:02.429Z,1.90
2018-08-13T17:17:30.587Z,2.10
2018-08-13T17:19:58.757Z,1.87
2018-08-13T17:22:26.985Z,2.00
2018-08-13T17:24:55.162Z,2.10
2018-08-13T17:27:23.347Z,1.80
2018-08-13T17:29:51.499Z,1.90
2018-08-13T17:32:19.682Z,2.00
2018-08-13T17:34:47.896Z,1.93
2018-08-13T17:37:16.059Z,2.10
2018-08-13T17:39:44.206Z,2.30
2018-08-13T17:42:12.474Z,2.07
2018-08-13T17:44:40.686Z,1.70
2018-08-13T17:47:08.910Z,1.97
2018-08-13T17:49:37.088Z,2.20
2018-08-13T17:52:05.229Z,2.10
2018-08-13T17:54:33.377Z,2.13
2018-08-13T17:57:01.513Z,2.10
2018-08-13T17:59:29.673Z,2.13
2018-08-13T18:01:57.920Z,2.30
2018-08-13T18:04:26.050Z,2.30
2018-08-13T18:06:54.229Z,2.20
2018-08-13T18:09:22.370Z,1.70
2018-08-13T18:11:50.547Z,1.87
2018-08-13T18:14:18.730Z,2.40
2018-08-13T18:16:46.983Z,2.30
2018-08-13T18:19:15.142Z,2.70
2018-08-13T18:21:43.340Z,2.20
2018-08-13T18:24:11.484Z,2.20
2018-08-13T18:26:39.672Z,2.10
2018-08-13T18:29:08.202Z,2.33
2018-08-13T18:31:36.344Z,2.50
2018-08-13T18:34:04.486Z,2.20
2018-08-13T18:36:32.630Z,2.50
2018-08-13T18:39:01.031Z,2.20
2018-08-13T18:41:29.177Z,2.60
2018-08-13T18:43:57.322Z,2.40
2018-08-13T18:46:25.480Z,2.23
2018-08-13T18:48:53.834Z,2.67
2018-08-13T18:51:21.977Z,2.40
2018-08-13T18:53:50.146Z,2.40
2018-08-13T18:56:18.306Z,2.30
2018-08-13T18:58:46.455Z,2.30
2018-08-13T19:01:14.642Z,2.70
2018-08-13T19:03:42.766Z,2.40
2018-08-13T19:06:10.921Z,2.07
2018-08-13T19:08:39.134Z,2.30
2018-08-13T19:11:07.287Z,2.37
2018-08-13T19:13:35.438Z,2.20
2018-08-13T19:16:03.585Z,2.70
2018-08-13T19:18:32.054Z,2.60
2018-08-13T19:23:41.285Z,2.27
2018-08-13T19:26:09.485Z,2.70
2018-08-13T19:28:37.739Z,2.47
2018-08-13T19:31:05.989Z,2.20
2018-08-13T19:33:34.158Z,2.23
2018-08-13T19:36:02.422Z,2.33
2018-08-13T19:38:30.649Z,2.60
2018-08-13T19:40:58.835Z,2.43
2018-08-13T19:43:26.978Z,2.83
2018-08-13T19:45:55.220Z,2.60
2018-08-13T19:48:23.366Z,2.83
2018-08-13T19:50:51.517Z,2.97
2018-08-13T19:53:19.708Z,2.57
2018-08-13T19:55:47.862Z,2.90
2018-08-13T19:58:16.293Z,3.23
2018-08-13T20:00:44.454Z,2.80
2018-08-13T20:03:13.701Z,2.80
2018-08-13T20:05:42.141Z,2.90
2018-08-13T20:08:10.481Z,2.70
2018-08-13T20:10:38.639Z,3.27
2018-08-13T20:13:07.012Z,2.90
2018-08-13T20:15:35.202Z,3.20
2018-08-13T20:18:03.394Z,3.10
2018-08-13T20:20:31.578Z,2.77
2018-08-13T20:22:59.729Z,2.77
2018-08-13T20:25:27.938Z,3.00
2018-08-13T20:27:56.190Z,3.03
2018-08-13T20:30:24.274Z,3.07
2018-08-13T20:32:53.307Z,3.07
2018-08-13T20:35:21.557Z,2.70
2018-08-13T20:37:49.726Z,3.60
2018-08-13T20:40:19.044Z,2.80
2018-08-13T20:42:47.742Z,2.93
2018-08-13T20:45:17.669Z,2.53
2018-08-13T20:47:46.349Z,3.00
2018-08-13T20:50:16.247Z,2.87
2018-08-13T20:52:45.077Z,2.53
2018-08-13T20:55:16.090Z,3.00
2018-08-13T20:57:45.192Z,2.87
2018-08-13T21:00:14.365Z,3.10
2018-08-13T21:02:43.577Z,2.80
2018-08-13T21:05:11.806Z,2.77
2018-08-13T21:07:39.981Z,2.77
2018-08-13T21:10:11.339Z,2.97
2018-08-13T21:12:39.606Z,2.83
2018-08-13T21:15:09.457Z,2.60
2018-08-13T21:17:37.922Z,2.67
2018-08-13T21:20:06.409Z,2.60
2018-08-13T21:22:35.210Z,2.53
2018-08-13T21:25:03.866Z,2.57
2018-08-13T21:27:32.031Z,2.30
2018-08-13T21:30:00.187Z,2.60
2018-08-13T21:32:28.353Z,2.10
2018-08-13T21:34:56.482Z,2.70
2018-08-13T21:37:24.695Z,2.60
2018-08-13T21:39:52.804Z,2.67
2018-08-13T21:42:20.973Z,2.10
2018-08-13T21:44:49.118Z,2.30
2018-08-13T21:47:17.310Z,2.57
2018-08-13T21:49:45.478Z,2.20
2018-08-13T21:52:13.638Z,2.90
2018-08-13T21:54:41.814Z,2.50
2018-08-13T21:57:09.986Z,2.87
2018-08-13T21:59:38.119Z,2.30
2018-08-13T22:02:12.011Z,2.63
2018-08-13T22:04:41.730Z,2.50
2018-08-13T22:07:09.991Z,2.50
2018-08-13T22:09:38.250Z,2.53
2018-08-13T22:12:10.862Z,2.37
2018-08-13T22:14:39.086Z,2.67
2018-08-13T22:17:07.218Z,2.73
2018-08-13T22:19:35.369Z,2.97
2018-08-13T22:22:03.561Z,2.90
2018-08-13T22:24:43.413Z,2.90
2018-08-13T22:27:11.567Z,2.47
2018-08-13T22:29:39.727Z,2.60
2018-08-13T22:32:07.930Z,2.80
2018-08-13T22:34:36.099Z,2.90
2018-08-13T22:37:04.287Z,2.83
2018-08-13T22:39:32.459Z,3.10
2018-08-13T22:42:00.612Z,2.77
2018-08-13T22:44:28.776Z,2.90
2018-08-13T22:46:56.938Z,2.83
2018-08-13T22:49:25.097Z,2.80
2018-08-13T22:51:53.267Z,3.23
2018-08-13T22:54:21.442Z,3.40
2018-08-13T22:56:49.611Z,3.17
2018-08-13T22:59:17.750Z,2.90
2018-08-13T23:01:45.909Z,3.20
2018-08-13T23:04:14.066Z,3.30
2018-08-13T23:06:42.223Z,3.10
2018-08-13T23:09:11.613Z,3.23
2018-08-13T23:11:39.786Z,3.20
2018-08-13T23:14:07.973Z,3.10
2018-08-13T23:16:36.165Z,3.40
2018-08-13T23:19:04.342Z,3.40
2018-08-13T23:21:32.494Z,3.07
2018-08-13T23:24:00.619Z,3.70
2018-08-13T23:26:28.790Z,3.57
2018-08-13T23:28:56.946Z,3.03
2018-08-13T23:31:25.087Z,3.20
2018-08-13T23:33:53.221Z,2.90
2018-08-13T23:36:21.374Z,2.60
2018-08-13T23:38:49.753Z,2.97
2018-08-13T23:41:17.906Z,2.93
2018-08-13T23:43:46.078Z,3.10
2018-08-13T23:46:14.237Z,2.90
2018-08-13T23:48:42.393Z,2.60
2018-08-13T23:51:10.541Z,2.73
2018-08-13T23:53:38.719Z,2.63
2018-08-13T23:56:07.097Z,2.53
2018-08-13T23:58:35.230Z,2.70
